sensor_id;sensor_type;location;lat;lon;timestamp;temperature;humidity
53053;DHT22;38934;52.690;6.184;2024-03-02T00:00:10;7.80;99.90
53053;DHT22;38934;52.690;6.184;2024-03-02T00:02:47;7.70;99.90
53053;DHT22;38934;52.690;6.184;2024-03-02T00:05:13;7.70;99.90
53053;DHT22;38934;52.690;6.184;2024-03-02T00:07:44;7.70;99.90
53053;DHT22;38934;52.690;6.184;2024-03-02T00:10:11;7.70;99.90
53053;DHT22;38934;52.690;6.184;2024-03-02T00:12:40;7.70;99.90
53053;DHT22;38934;52.690;6.184;2024-03-02T00:17:55;7.70;99.90
53053;DHT22;38934;52.690;6.184;2024-03-02T00:20:22;7.70;99.90
53053;DHT22;38934;52.690;6.184;2024-03-02T00:22:49;7.70;99.90
53053;DHT22;38934;52.690;6.184;2024-03-02T00:25:15;7.60;99.90
53053;DHT22;38934;52.690;6.184;2024-03-02T00:27:41;7.70;99.90
53053;DHT22;38934;52.690;6.184;2024-03-02T00:33:10;7.60;99.90
53053;DHT22;38934;52.690;6.184;2024-03-02T00:35:36;7.60;99.90
53053;DHT22;38934;52.690;6.184;2024-03-02T00:38:05;7.60;99.90
53053;DHT22;38934;52.690;6.184;2024-03-02T00:40:31;7.70;99.90
53053;DHT22;38934;52.690;6.184;2024-03-02T00:42:57;7.60;99.90
53053;DHT22;38934;52.690;6.184;2024-03-02T00:45:23;7.60;99.90
53053;DHT22;38934;52.690;6.184;2024-03-02T00:47:50;7.60;99.90
53053;DHT22;38934;52.690;6.184;2024-03-02T00:50:16;7.60;99.90
53053;DHT22;38934;52.690;6.184;2024-03-02T00:52:42;7.60;99.90
53053;DHT22;38934;52.690;6.184;2024-03-02T00:55:08;8.30;99.90
53053;DHT22;38934;52.690;6.184;2024-03-02T00:57:35;7.60;99.90
53053;DHT22;38934;52.690;6.184;2024-03-02T01:00:01;7.70;99.90
53053;DHT22;38934;52.690;6.184;2024-03-02T01:02:28;7.60;99.90
53053;DHT22;38934;52.690;6.184;2024-03-02T01:04:54;7.60;99.90
53053;DHT22;38934;52.690;6.184;2024-03-02T01:07:20;7.60;99.90
53053;DHT22;38934;52.690;6.184;2024-03-02T01:09:45;7.70;99.90
53053;DHT22;38934;52.690;6.184;2024-03-02T01:12:11;7.80;99.90
53053;DHT22;38934;52.690;6.184;2024-03-02T01:14:36;8.60;99.90
53053;DHT22;38934;52.690;6.184;2024-03-02T01:17:02;7.70;99.90
53053;DHT22;38934;52.690;6.184;2024-03-02T01:19:30;7.70;99.90
53053;DHT22;38934;52.690;6.184;2024-03-02T01:21:55;7.80;99.90
53053;DHT22;38934;52.690;6.184;2024-03-02T01:24:21;7.90;99.90
53053;DHT22;38934;52.690;6.184;2024-03-02T01:26:46;7.90;99.90
53053;DHT22;38934;52.690;6.184;2024-03-02T01:29:12;7.80;99.90
53053;DHT22;38934;52.690;6.184;2024-03-02T01:31:38;7.90;99.90
53053;DHT22;38934;52.690;6.184;2024-03-02T01:34:05;7.90;99.90
53053;DHT22;38934;52.690;6.184;2024-03-02T01:36:30;7.90;99.90
53053;DHT22;38934;52.690;6.184;2024-03-02T01:38:56;8.40;99.90
53053;DHT22;38934;52.690;6.184;2024-03-02T01:41:21;7.90;99.90
53053;DHT22;38934;52.690;6.184;2024-03-02T01:43:47;7.90;99.90
53053;DHT22;38934;52.690;6.184;2024-03-02T01:46:13;7.90;99.90
53053;DHT22;38934;52.690;6.184;2024-03-02T01:48:38;7.90;99.90
53053;DHT22;38934;52.690;6.184;2024-03-02T01:51:04;7.90;99.90
53053;DHT22;38934;52.690;6.184;2024-03-02T01:53:31;7.90;99.90
53053;DHT22;38934;52.690;6.184;2024-03-02T01:55:57;8.00;99.90
53053;DHT22;38934;52.690;6.184;2024-03-02T01:58:23;8.00;99.90
53053;DHT22;38934;52.690;6.184;2024-03-02T02:00:48;8.00;99.90
53053;DHT22;38934;52.690;6.184;2024-03-02T02:03:15;7.90;99.90
53053;DHT22;38934;52.690;6.184;2024-03-02T02:05:42;8.00;99.90
53053;DHT22;38934;52.690;6.184;2024-03-02T02:08:07;8.00;99.90
53053;DHT22;38934;52.690;6.184;2024-03-02T02:10:33;8.00;99.90
53053;DHT22;38934;52.690;6.184;2024-03-02T02:12:59;8.20;99.90
53053;DHT22;38934;52.690;6.184;2024-03-02T02:15:28;8.00;99.90
53053;DHT22;38934;52.690;6.184;2024-03-02T02:17:58;8.10;99.90
53053;DHT22;38934;52.690;6.184;2024-03-02T02:20:24;8.10;99.90
53053;DHT22;38934;52.690;6.184;2024-03-02T02:22:55;8.10;99.90
53053;DHT22;38934;52.690;6.184;2024-03-02T02:25:21;8.10;99.90
53053;DHT22;38934;52.690;6.184;2024-03-02T02:27:46;8.10;99.90
53053;DHT22;38934;52.690;6.184;2024-03-02T02:30:12;8.10;99.90
53053;DHT22;38934;52.690;6.184;2024-03-02T02:32:38;8.10;99.90
53053;DHT22;38934;52.690;6.184;2024-03-02T02:35:04;9.60;99.90
53053;DHT22;38934;52.690;6.184;2024-03-02T02:37:30;8.10;99.90
53053;DHT22;38934;52.690;6.184;2024-03-02T02:39:56;8.20;99.90
53053;DHT22;38934;52.690;6.184;2024-03-02T02:42:22;8.60;99.90
53053;DHT22;38934;52.690;6.184;2024-03-02T02:44:47;8.20;99.90
53053;DHT22;38934;52.690;6.184;2024-03-02T02:47:13;8.30;99.90
53053;DHT22;38934;52.690;6.184;2024-03-02T02:49:38;8.30;99.90
53053;DHT22;38934;52.690;6.184;2024-03-02T02:52:04;8.30;99.90
53053;DHT22;38934;52.690;6.184;2024-03-02T02:54:29;8.30;99.90
53053;DHT22;38934;52.690;6.184;2024-03-02T02:56:55;8.30;99.90
53053;DHT22;38934;52.690;6.184;2024-03-02T02:59:21;8.30;99.90
53053;DHT22;38934;52.690;6.184;2024-03-02T03:01:47;8.30;99.90
53053;DHT22;38934;52.690;6.184;2024-03-02T03:04:13;8.30;99.90
53053;DHT22;38934;52.690;6.184;2024-03-02T03:06:38;8.30;99.90
53053;DHT22;38934;52.690;6.184;2024-03-02T03:09:04;8.30;99.90
53053;DHT22;38934;52.690;6.184;2024-03-02T03:11:29;8.80;99.90
53053;DHT22;38934;52.690;6.184;2024-03-02T03:13:55;8.20;99.90
53053;DHT22;38934;52.690;6.184;2024-03-02T03:16:21;8.20;99.90
53053;DHT22;38934;52.690;6.184;2024-03-02T03:18:46;8.20;99.90
53053;DHT22;38934;52.690;6.184;2024-03-02T03:21:12;8.20;99.90
53053;DHT22;38934;52.690;6.184;2024-03-02T03:23:37;8.20;99.90
53053;DHT22;38934;52.690;6.184;2024-03-02T03:26:03;8.10;99.90
53053;DHT22;38934;52.690;6.184;2024-03-02T03:28:29;8.10;99.90
53053;DHT22;38934;52.690;6.184;2024-03-02T03:30:55;8.80;99.90
53053;DHT22;38934;52.690;6.184;2024-03-02T03:33:21;8.10;99.90
53053;DHT22;38934;52.690;6.184;2024-03-02T03:35:46;8.10;99.90
53053;DHT22;38934;52.690;6.184;2024-03-02T03:38:13;8.70;99.90
53053;DHT22;38934;52.690;6.184;2024-03-02T03:40:39;8.10;99.90
53053;DHT22;38934;52.690;6.184;2024-03-02T03:43:05;8.10;99.90
53053;DHT22;38934;52.690;6.184;2024-03-02T03:45:30;8.10;99.90
53053;DHT22;38934;52.690;6.184;2024-03-02T03:47:56;8.10;99.90
53053;DHT22;38934;52.690;6.184;2024-03-02T03:50:22;8.10;99.90
53053;DHT22;38934;52.690;6.184;2024-03-02T03:52:47;8.10;99.90
53053;DHT22;38934;52.690;6.184;2024-03-02T03:55:13;8.10;99.90
53053;DHT22;38934;52.690;6.184;2024-03-02T03:57:39;8.10;99.90
53053;DHT22;38934;52.690;6.184;2024-03-02T04:00:05;8.10;99.90
53053;DHT22;38934;52.690;6.184;2024-03-02T04:02:31;8.10;99.90
53053;DHT22;38934;52.690;6.184;2024-03-02T04:04:56;8.10;99.90
53053;DHT22;38934;52.690;6.184;2024-03-02T04:07:22;8.10;99.90
53053;DHT22;38934;52.690;6.184;2024-03-02T04:09:47;8.10;99.90
53053;DHT22;38934;52.690;6.184;2024-03-02T04:12:13;8.10;99.90
53053;DHT22;38934;52.690;6.184;2024-03-02T04:14:38;8.10;99.90
53053;DHT22;38934;52.690;6.184;2024-03-02T04:17:04;8.10;99.90
53053;DHT22;38934;52.690;6.184;2024-03-02T04:19:30;8.00;99.90
53053;DHT22;38934;52.690;6.184;2024-03-02T04:21:56;8.00;99.90
53053;DHT22;38934;52.690;6.184;2024-03-02T04:24:21;8.00;99.90
53053;DHT22;38934;52.690;6.184;2024-03-02T04:26:47;7.90;99.90
53053;DHT22;38934;52.690;6.184;2024-03-02T04:29:12;7.90;99.90
53053;DHT22;38934;52.690;6.184;2024-03-02T04:31:38;7.90;99.90
53053;DHT22;38934;52.690;6.184;2024-03-02T04:34:03;8.70;99.90
53053;DHT22;38934;52.690;6.184;2024-03-02T04:36:29;7.80;99.90
53053;DHT22;38934;52.690;6.184;2024-03-02T04:38:55;7.80;99.90
53053;DHT22;38934;52.690;6.184;2024-03-02T04:41:20;7.70;99.90
53053;DHT22;38934;52.690;6.184;2024-03-02T04:43:46;7.60;99.90
53053;DHT22;38934;52.690;6.184;2024-03-02T04:46:11;7.50;99.90
53053;DHT22;38934;52.690;6.184;2024-03-02T04:48:37;7.50;99.90
53053;DHT22;38934;52.690;6.184;2024-03-02T04:51:03;7.40;99.90
53053;DHT22;38934;52.690;6.184;2024-03-02T04:53:28;7.40;99.90
53053;DHT22;38934;52.690;6.184;2024-03-02T04:55:54;7.30;99.90
53053;DHT22;38934;52.690;6.184;2024-03-02T04:58:19;7.30;99.90
53053;DHT22;38934;52.690;6.184;2024-03-02T05:00:45;7.30;99.90
53053;DHT22;38934;52.690;6.184;2024-03-02T05:03:12;7.20;99.90
53053;DHT22;38934;52.690;6.184;2024-03-02T05:05:37;7.20;99.90
53053;DHT22;38934;52.690;6.184;2024-03-02T05:08:04;7.30;99.90
53053;DHT22;38934;52.690;6.184;2024-03-02T05:10:29;7.20;99.90
53053;DHT22;38934;52.690;6.184;2024-03-02T05:12:55;7.20;99.90
53053;DHT22;38934;52.690;6.184;2024-03-02T05:15:24;7.10;99.90
53053;DHT22;38934;52.690;6.184;2024-03-02T05:17:50;7.00;99.90
53053;DHT22;38934;52.690;6.184;2024-03-02T05:20:16;7.00;99.90
53053;DHT22;38934;52.690;6.184;2024-03-02T05:22:42;6.90;99.90
53053;DHT22;38934;52.690;6.184;2024-03-02T05:25:08;6.80;99.90
53053;DHT22;38934;52.690;6.184;2024-03-02T05:27:35;6.70;99.90
53053;DHT22;38934;52.690;6.184;2024-03-02T05:30:01;6.70;99.90
53053;DHT22;38934;52.690;6.184;2024-03-02T05:32:27;6.70;99.90
53053;DHT22;38934;52.690;6.184;2024-03-02T05:34:52;6.60;99.90
53053;DHT22;38934;52.690;6.184;2024-03-02T05:37:18;6.60;99.90
53053;DHT22;38934;52.690;6.184;2024-03-02T05:39:44;6.60;99.90
53053;DHT22;38934;52.690;6.184;2024-03-02T05:42:10;6.50;99.90
53053;DHT22;38934;52.690;6.184;2024-03-02T05:44:36;6.50;99.90
53053;DHT22;38934;52.690;6.184;2024-03-02T05:47:02;6.40;99.90
53053;DHT22;38934;52.690;6.184;2024-03-02T05:49:28;6.40;99.90
53053;DHT22;38934;52.690;6.184;2024-03-02T05:51:54;6.30;99.90
53053;DHT22;38934;52.690;6.184;2024-03-02T05:54:19;6.40;99.90
53053;DHT22;38934;52.690;6.184;2024-03-02T05:56:45;6.30;99.90
53053;DHT22;38934;52.690;6.184;2024-03-02T05:59:10;6.30;99.90
53053;DHT22;38934;52.690;6.184;2024-03-02T06:01:43;6.30;99.90
53053;DHT22;38934;52.690;6.184;2024-03-02T06:04:12;6.30;99.90
53053;DHT22;38934;52.690;6.184;2024-03-02T06:06:38;6.30;99.90
53053;DHT22;38934;52.690;6.184;2024-03-02T06:09:05;6.30;99.90
53053;DHT22;38934;52.690;6.184;2024-03-02T06:11:36;6.30;99.90
53053;DHT22;38934;52.690;6.184;2024-03-02T06:14:06;6.30;99.90
53053;DHT22;38934;52.690;6.184;2024-03-02T06:16:33;6.30;99.90
53053;DHT22;38934;52.690;6.184;2024-03-02T06:18:59;6.20;99.90
53053;DHT22;38934;52.690;6.184;2024-03-02T06:21:25;6.20;99.90
53053;DHT22;38934;52.690;6.184;2024-03-02T06:23:50;6.30;99.90
53053;DHT22;38934;52.690;6.184;2024-03-02T06:26:16;6.10;99.90
53053;DHT22;38934;52.690;6.184;2024-03-02T06:28:42;6.00;99.90
53053;DHT22;38934;52.690;6.184;2024-03-02T06:31:08;6.00;99.90
53053;DHT22;38934;52.690;6.184;2024-03-02T06:33:34;5.90;99.90
53053;DHT22;38934;52.690;6.184;2024-03-02T06:36:00;5.90;99.90
53053;DHT22;38934;52.690;6.184;2024-03-02T06:38:25;5.80;99.90
53053;DHT22;38934;52.690;6.184;2024-03-02T06:40:51;5.80;99.90
53053;DHT22;38934;52.690;6.184;2024-03-02T06:43:17;5.80;99.90
53053;DHT22;38934;52.690;6.184;2024-03-02T06:45:42;5.70;99.90
53053;DHT22;38934;52.690;6.184;2024-03-02T06:48:08;5.70;99.90
53053;DHT22;38934;52.690;6.184;2024-03-02T06:50:33;5.70;99.90
53053;DHT22;38934;52.690;6.184;2024-03-02T06:52:59;5.70;99.90
53053;DHT22;38934;52.690;6.184;2024-03-02T06:55:25;5.70;99.90
53053;DHT22;38934;52.690;6.184;2024-03-02T06:57:51;5.70;99.90
53053;DHT22;38934;52.690;6.184;2024-03-02T07:00:18;5.70;99.90
53053;DHT22;38934;52.690;6.184;2024-03-02T07:02:45;5.70;99.90
53053;DHT22;38934;52.690;6.184;2024-03-02T07:05:11;5.70;99.90
53053;DHT22;38934;52.690;6.184;2024-03-02T07:07:37;5.70;99.90
53053;DHT22;38934;52.690;6.184;2024-03-02T07:10:04;5.70;99.90
53053;DHT22;38934;52.690;6.184;2024-03-02T07:12:30;5.70;99.90
53053;DHT22;38934;52.690;6.184;2024-03-02T07:14:56;5.70;99.90
53053;DHT22;38934;52.690;6.184;2024-03-02T07:17:31;5.70;99.90
53053;DHT22;38934;52.690;6.184;2024-03-02T07:19:57;5.70;99.90
53053;DHT22;38934;52.690;6.184;2024-03-02T07:22:23;5.70;99.90
53053;DHT22;38934;52.690;6.184;2024-03-02T07:24:49;5.70;99.90
53053;DHT22;38934;52.690;6.184;2024-03-02T07:27:15;5.70;99.90
53053;DHT22;38934;52.690;6.184;2024-03-02T07:29:41;5.70;99.90
53053;DHT22;38934;52.690;6.184;2024-03-02T07:32:08;5.80;99.90
53053;DHT22;38934;52.690;6.184;2024-03-02T07:34:34;5.80;99.90
53053;DHT22;38934;52.690;6.184;2024-03-02T07:37:00;5.80;99.90
53053;DHT22;38934;52.690;6.184;2024-03-02T07:39:26;5.90;99.90
53053;DHT22;38934;52.690;6.184;2024-03-02T07:41:52;5.90;99.90
53053;DHT22;38934;52.690;6.184;2024-03-02T07:44:17;5.90;99.90
53053;DHT22;38934;52.690;6.184;2024-03-02T07:46:45;6.00;99.90
53053;DHT22;38934;52.690;6.184;2024-03-02T07:49:18;6.00;99.90
53053;DHT22;38934;52.690;6.184;2024-03-02T07:51:44;6.00;99.90
53053;DHT22;38934;52.690;6.184;2024-03-02T07:54:10;6.00;99.90
53053;DHT22;38934;52.690;6.184;2024-03-02T07:56:36;6.50;99.90
53053;DHT22;38934;52.690;6.184;2024-03-02T07:59:02;6.10;99.90
53053;DHT22;38934;52.690;6.184;2024-03-02T08:01:29;6.20;99.90
53053;DHT22;38934;52.690;6.184;2024-03-02T08:03:56;6.20;99.90
53053;DHT22;38934;52.690;6.184;2024-03-02T08:06:24;6.20;99.90
53053;DHT22;38934;52.690;6.184;2024-03-02T08:08:53;6.30;99.90
53053;DHT22;38934;52.690;6.184;2024-03-02T08:11:20;6.30;99.90
53053;DHT22;38934;52.690;6.184;2024-03-02T08:13:45;6.30;99.90
53053;DHT22;38934;52.690;6.184;2024-03-02T08:16:11;6.40;99.90
53053;DHT22;38934;52.690;6.184;2024-03-02T08:18:36;6.40;99.90
53053;DHT22;38934;52.690;6.184;2024-03-02T08:21:02;6.40;99.90
53053;DHT22;38934;52.690;6.184;2024-03-02T08:23:28;6.50;99.90
53053;DHT22;38934;52.690;6.184;2024-03-02T08:25:54;6.50;99.90
53053;DHT22;38934;52.690;6.184;2024-03-02T08:28:19;6.50;99.90
53053;DHT22;38934;52.690;6.184;2024-03-02T08:30:45;6.60;99.90
53053;DHT22;38934;52.690;6.184;2024-03-02T08:33:11;6.70;99.90
53053;DHT22;38934;52.690;6.184;2024-03-02T08:35:36;6.80;99.90
53053;DHT22;38934;52.690;6.184;2024-03-02T08:38:03;6.90;99.90
53053;DHT22;38934;52.690;6.184;2024-03-02T08:40:29;7.00;99.90
53053;DHT22;38934;52.690;6.184;2024-03-02T08:42:54;7.20;99.90
53053;DHT22;38934;52.690;6.184;2024-03-02T08:45:20;7.30;99.90
53053;DHT22;38934;52.690;6.184;2024-03-02T08:47:46;7.50;99.90
53053;DHT22;38934;52.690;6.184;2024-03-02T08:50:12;7.60;99.90
53053;DHT22;38934;52.690;6.184;2024-03-02T08:52:38;7.80;99.90
53053;DHT22;38934;52.690;6.184;2024-03-02T08:55:04;7.90;99.90
53053;DHT22;38934;52.690;6.184;2024-03-02T08:57:31;8.00;99.90
53053;DHT22;38934;52.690;6.184;2024-03-02T08:59:57;8.00;99.90
53053;DHT22;38934;52.690;6.184;2024-03-02T09:02:23;8.10;99.90
53053;DHT22;38934;52.690;6.184;2024-03-02T09:04:49;8.10;99.90
53053;DHT22;38934;52.690;6.184;2024-03-02T09:07:15;8.10;99.90
53053;DHT22;38934;52.690;6.184;2024-03-02T09:09:40;8.20;99.90
53053;DHT22;38934;52.690;6.184;2024-03-02T09:12:06;8.30;99.90
53053;DHT22;38934;52.690;6.184;2024-03-02T09:14:32;8.30;99.90
53053;DHT22;38934;52.690;6.184;2024-03-02T09:16:58;8.40;99.90
53053;DHT22;38934;52.690;6.184;2024-03-02T09:19:23;8.40;99.90
53053;DHT22;38934;52.690;6.184;2024-03-02T09:21:49;8.50;99.90
53053;DHT22;38934;52.690;6.184;2024-03-02T09:24:15;8.60;99.90
53053;DHT22;38934;52.690;6.184;2024-03-02T09:26:41;8.60;99.90
53053;DHT22;38934;52.690;6.184;2024-03-02T09:29:07;8.60;99.90
53053;DHT22;38934;52.690;6.184;2024-03-02T09:31:32;8.70;99.90
53053;DHT22;38934;52.690;6.184;2024-03-02T09:33:58;8.70;99.90
53053;DHT22;38934;52.690;6.184;2024-03-02T09:36:24;8.70;99.90
53053;DHT22;38934;52.690;6.184;2024-03-02T09:38:49;8.70;99.90
53053;DHT22;38934;52.690;6.184;2024-03-02T09:41:15;8.80;99.90
53053;DHT22;38934;52.690;6.184;2024-03-02T09:43:41;8.80;99.90
53053;DHT22;38934;52.690;6.184;2024-03-02T09:46:09;8.80;99.90
53053;DHT22;38934;52.690;6.184;2024-03-02T09:48:35;8.90;99.90
53053;DHT22;38934;52.690;6.184;2024-03-02T09:51:01;8.90;99.90
53053;DHT22;38934;52.690;6.184;2024-03-02T09:53:33;8.90;99.90
53053;DHT22;38934;52.690;6.184;2024-03-02T09:56:02;9.00;99.90
53053;DHT22;38934;52.690;6.184;2024-03-02T09:58:27;9.00;99.90
53053;DHT22;38934;52.690;6.184;2024-03-02T10:00:53;9.10;99.90
53053;DHT22;38934;52.690;6.184;2024-03-02T10:03:19;9.10;99.90
53053;DHT22;38934;52.690;6.184;2024-03-02T10:05:46;9.10;99.90
53053;DHT22;38934;52.690;6.184;2024-03-02T10:08:12;9.10;99.90
53053;DHT22;38934;52.690;6.184;2024-03-02T10:10:41;9.10;99.90
53053;DHT22;38934;52.690;6.184;2024-03-02T10:13:09;9.10;99.90
53053;DHT22;38934;52.690;6.184;2024-03-02T10:15:36;9.10;99.90
53053;DHT22;38934;52.690;6.184;2024-03-02T10:18:12;9.20;99.90
53053;DHT22;38934;52.690;6.184;2024-03-02T10:20:39;9.20;99.90
53053;DHT22;38934;52.690;6.184;2024-03-02T10:23:12;9.20;99.90
53053;DHT22;38934;52.690;6.184;2024-03-02T10:25:38;9.40;99.90
53053;DHT22;38934;52.690;6.184;2024-03-02T10:28:04;9.40;99.90
53053;DHT22;38934;52.690;6.184;2024-03-02T10:30:33;9.60;99.90
53053;DHT22;38934;52.690;6.184;2024-03-02T10:33:03;10.40;99.90
53053;DHT22;38934;52.690;6.184;2024-03-02T10:35:29;9.90;99.90
53053;DHT22;38934;52.690;6.184;2024-03-02T10:37:59;10.10;99.90
53053;DHT22;38934;52.690;6.184;2024-03-02T10:40:26;10.30;99.90
53053;DHT22;38934;52.690;6.184;2024-03-02T10:42:52;10.70;99.90
53053;DHT22;38934;52.690;6.184;2024-03-02T10:45:20;10.40;99.90
53053;DHT22;38934;52.690;6.184;2024-03-02T10:47:48;10.40;99.90
53053;DHT22;38934;52.690;6.184;2024-03-02T10:50:14;10.40;99.90
53053;DHT22;38934;52.690;6.184;2024-03-02T10:52:40;10.40;99.90
53053;DHT22;38934;52.690;6.184;2024-03-02T10:55:09;10.40;99.90
53053;DHT22;38934;52.690;6.184;2024-03-02T10:57:54;10.40;99.90
53053;DHT22;38934;52.690;6.184;2024-03-02T11:00:24;10.40;99.90
53053;DHT22;38934;52.690;6.184;2024-03-02T11:02:56;10.60;99.90
53053;DHT22;38934;52.690;6.184;2024-03-02T11:05:31;10.40;99.90
53053;DHT22;38934;52.690;6.184;2024-03-02T11:08:11;10.40;99.90
53053;DHT22;38934;52.690;6.184;2024-03-02T11:10:49;10.40;99.90
53053;DHT22;38934;52.690;6.184;2024-03-02T11:13:53;10.50;99.90
53053;DHT22;38934;52.690;6.184;2024-03-02T11:16:20;10.50;99.90
53053;DHT22;38934;52.690;6.184;2024-03-02T11:18:48;10.40;99.90
53053;DHT22;38934;52.690;6.184;2024-03-02T11:21:16;10.40;99.90
53053;DHT22;38934;52.690;6.184;2024-03-02T11:23:42;10.90;99.90
53053;DHT22;38934;52.690;6.184;2024-03-02T11:26:21;10.50;99.90
53053;DHT22;38934;52.690;6.184;2024-03-02T11:28:48;10.50;99.90
53053;DHT22;38934;52.690;6.184;2024-03-02T11:31:13;11.00;99.90
53053;DHT22;38934;52.690;6.184;2024-03-02T11:33:39;10.50;99.90
53053;DHT22;38934;52.690;6.184;2024-03-02T11:36:06;10.50;99.90
53053;DHT22;38934;52.690;6.184;2024-03-02T11:38:33;10.50;99.90
53053;DHT22;38934;52.690;6.184;2024-03-02T11:41:03;10.60;99.90
53053;DHT22;38934;52.690;6.184;2024-03-02T11:43:30;10.50;99.90
53053;DHT22;38934;52.690;6.184;2024-03-02T11:46:00;10.50;99.90
53053;DHT22;38934;52.690;6.184;2024-03-02T11:48:26;10.50;99.90
53053;DHT22;38934;52.690;6.184;2024-03-02T11:50:52;10.60;99.90
53053;DHT22;38934;52.690;6.184;2024-03-02T11:53:20;10.60;99.90
53053;DHT22;38934;52.690;6.184;2024-03-02T11:55:46;10.60;99.90
53053;DHT22;38934;52.690;6.184;2024-03-02T11:58:14;10.70;99.90
53053;DHT22;38934;52.690;6.184;2024-03-02T12:00:43;10.60;99.90
53053;DHT22;38934;52.690;6.184;2024-03-02T12:03:13;10.70;99.90
53053;DHT22;38934;52.690;6.184;2024-03-02T12:05:39;10.60;99.90
53053;DHT22;38934;52.690;6.184;2024-03-02T12:08:06;10.60;99.90
53053;DHT22;38934;52.690;6.184;2024-03-02T12:10:32;10.70;99.90
53053;DHT22;38934;52.690;6.184;2024-03-02T12:13:03;10.70;99.90
53053;DHT22;38934;52.690;6.184;2024-03-02T12:15:31;10.70;99.90
53053;DHT22;38934;52.690;6.184;2024-03-02T12:17:58;10.70;99.90
53053;DHT22;38934;52.690;6.184;2024-03-02T12:20:26;10.70;99.90
53053;DHT22;38934;52.690;6.184;2024-03-02T12:22:57;10.80;99.90
53053;DHT22;38934;52.690;6.184;2024-03-02T12:25:24;10.80;99.90
53053;DHT22;38934;52.690;6.184;2024-03-02T12:27:52;10.80;99.90
53053;DHT22;38934;52.690;6.184;2024-03-02T12:30:19;10.80;99.90
53053;DHT22;38934;52.690;6.184;2024-03-02T12:32:45;10.80;99.90
53053;DHT22;38934;52.690;6.184;2024-03-02T12:35:12;10.90;99.90
53053;DHT22;38934;52.690;6.184;2024-03-02T12:37:51;10.90;99.90
53053;DHT22;38934;52.690;6.184;2024-03-02T12:40:18;10.90;99.90
53053;DHT22;38934;52.690;6.184;2024-03-02T12:42:45;11.00;99.90
53053;DHT22;38934;52.690;6.184;2024-03-02T12:45:12;11.00;99.90
53053;DHT22;38934;52.690;6.184;2024-03-02T12:47:40;11.00;99.90
53053;DHT22;38934;52.690;6.184;2024-03-02T12:50:07;11.40;99.90
53053;DHT22;38934;52.690;6.184;2024-03-02T12:52:33;11.10;99.90
53053;DHT22;38934;52.690;6.184;2024-03-02T12:55:04;11.10;99.90
53053;DHT22;38934;52.690;6.184;2024-03-02T12:57:31;11.00;99.90
53053;DHT22;38934;52.690;6.184;2024-03-02T13:00:03;11.10;99.90
53053;DHT22;38934;52.690;6.184;2024-03-02T13:02:40;11.10;99.90
53053;DHT22;38934;52.690;6.184;2024-03-02T13:05:07;11.40;99.90
53053;DHT22;38934;52.690;6.184;2024-03-02T13:07:36;11.50;99.90
53053;DHT22;38934;52.690;6.184;2024-03-02T13:10:02;11.20;99.90
53053;DHT22;38934;52.690;6.184;2024-03-02T13:12:30;11.20;99.90
53053;DHT22;38934;52.690;6.184;2024-03-02T13:14:58;11.20;99.90
53053;DHT22;38934;52.690;6.184;2024-03-02T13:17:23;11.20;99.90
53053;DHT22;38934;52.690;6.184;2024-03-02T13:19:56;11.40;99.90
53053;DHT22;38934;52.690;6.184;2024-03-02T13:22:22;11.30;99.90
53053;DHT22;38934;52.690;6.184;2024-03-02T13:24:49;11.30;99.90
53053;DHT22;38934;52.690;6.184;2024-03-02T13:27:15;11.30;99.90
53053;DHT22;38934;52.690;6.184;2024-03-02T13:29:42;11.40;99.90
53053;DHT22;38934;52.690;6.184;2024-03-02T13:32:07;11.50;99.90
53053;DHT22;38934;52.690;6.184;2024-03-02T13:34:35;11.50;99.90
53053;DHT22;38934;52.690;6.184;2024-03-02T13:37:01;11.60;99.90
53053;DHT22;38934;52.690;6.184;2024-03-02T13:39:27;11.60;99.90
53053;DHT22;38934;52.690;6.184;2024-03-02T13:41:53;12.40;99.90
53053;DHT22;38934;52.690;6.184;2024-03-02T13:44:27;11.60;99.90
53053;DHT22;38934;52.690;6.184;2024-03-02T13:46:52;11.70;99.90
53053;DHT22;38934;52.690;6.184;2024-03-02T13:49:18;11.80;99.90
53053;DHT22;38934;52.690;6.184;2024-03-02T13:51:44;11.80;99.90
53053;DHT22;38934;52.690;6.184;2024-03-02T13:54:11;11.80;99.90
53053;DHT22;38934;52.690;6.184;2024-03-02T13:56:37;11.90;99.90
53053;DHT22;38934;52.690;6.184;2024-03-02T13:59:04;12.00;99.90
53053;DHT22;38934;52.690;6.184;2024-03-02T14:01:31;12.10;99.90
53053;DHT22;38934;52.690;6.184;2024-03-02T14:03:58;12.30;99.90
53053;DHT22;38934;52.690;6.184;2024-03-02T14:06:24;12.40;99.90
53053;DHT22;38934;52.690;6.184;2024-03-02T14:08:52;12.40;99.90
53053;DHT22;38934;52.690;6.184;2024-03-02T14:11:18;12.40;99.90
53053;DHT22;38934;52.690;6.184;2024-03-02T14:13:44;12.40;99.90
53053;DHT22;38934;52.690;6.184;2024-03-02T14:16:15;12.40;99.90
53053;DHT22;38934;52.690;6.184;2024-03-02T14:18:41;12.40;99.90
53053;DHT22;38934;52.690;6.184;2024-03-02T14:21:07;12.50;99.90
53053;DHT22;38934;52.690;6.184;2024-03-02T14:23:32;12.60;99.90
53053;DHT22;38934;52.690;6.184;2024-03-02T14:25:58;12.60;99.90
53053;DHT22;38934;52.690;6.184;2024-03-02T14:28:24;13.80;99.90
53053;DHT22;38934;52.690;6.184;2024-03-02T14:30:50;13.00;99.90
53053;DHT22;38934;52.690;6.184;2024-03-02T14:33:16;12.70;99.90
53053;DHT22;38934;52.690;6.184;2024-03-02T14:35:42;12.70;99.90
53053;DHT22;38934;52.690;6.184;2024-03-02T14:38:07;13.20;99.90
53053;DHT22;38934;52.690;6.184;2024-03-02T14:40:33;13.50;99.90
53053;DHT22;38934;52.690;6.184;2024-03-02T14:42:59;12.70;99.90
53053;DHT22;38934;52.690;6.184;2024-03-02T14:45:24;12.70;99.90
53053;DHT22;38934;52.690;6.184;2024-03-02T14:47:50;12.70;99.90
53053;DHT22;38934;52.690;6.184;2024-03-02T14:50:17;13.10;99.90
53053;DHT22;38934;52.690;6.184;2024-03-02T14:52:44;12.60;99.90
53053;DHT22;38934;52.690;6.184;2024-03-02T14:55:10;13.30;99.90
53053;DHT22;38934;52.690;6.184;2024-03-02T14:57:36;12.60;99.90
53053;DHT22;38934;52.690;6.184;2024-03-02T15:00:02;12.60;99.90
53053;DHT22;38934;52.690;6.184;2024-03-02T15:02:29;12.60;99.90
53053;DHT22;38934;52.690;6.184;2024-03-02T15:04:55;13.30;99.90
53053;DHT22;38934;52.690;6.184;2024-03-02T15:07:20;12.60;99.90
53053;DHT22;38934;52.690;6.184;2024-03-02T15:09:46;12.60;99.90
53053;DHT22;38934;52.690;6.184;2024-03-02T15:12:11;12.70;99.90
53053;DHT22;38934;52.690;6.184;2024-03-02T15:14:40;12.60;99.90
53053;DHT22;38934;52.690;6.184;2024-03-02T15:17:14;12.60;99.90
53053;DHT22;38934;52.690;6.184;2024-03-02T15:19:44;12.60;99.90
53053;DHT22;38934;52.690;6.184;2024-03-02T15:22:10;12.60;99.90
53053;DHT22;38934;52.690;6.184;2024-03-02T15:24:36;12.50;99.90
53053;DHT22;38934;52.690;6.184;2024-03-02T15:27:02;13.00;99.90
53053;DHT22;38934;52.690;6.184;2024-03-02T15:29:32;12.60;99.90
53053;DHT22;38934;52.690;6.184;2024-03-02T15:31:58;12.60;99.90
53053;DHT22;38934;52.690;6.184;2024-03-02T15:34:24;13.40;99.90
53053;DHT22;38934;52.690;6.184;2024-03-02T15:36:50;12.70;99.90
53053;DHT22;38934;52.690;6.184;2024-03-02T15:39:16;13.90;99.90
53053;DHT22;38934;52.690;6.184;2024-03-02T15:41:45;12.80;99.90